createdAt,value
2017-09-18T00:05:27.695Z,8.00
2017-09-18T00:10:55.829Z,8.00
2017-09-18T00:16:25.995Z,8.00
2017-09-18T00:21:54.118Z,8.00
2017-09-18T00:27:22.263Z,8.00
2017-09-18T00:32:51.175Z,8.00
2017-09-18T00:38:19.326Z,8.10
2017-09-18T00:44:07.257Z,8.10
2017-09-18T00:49:35.378Z,8.10
2017-09-18T00:55:03.534Z,8.10
2017-09-18T01:00:31.660Z,8.10
2017-09-18T01:05:59.793Z,8.10
2017-09-18T01:11:27.929Z,8.00
2017-09-18T01:16:56.045Z,8.00
2017-09-18T01:22:24.942Z,8.00
2017-09-18T01:27:53.084Z,8.00
2017-09-18T01:33:34.079Z,8.00
2017-09-18T01:39:02.989Z,8.00
2017-09-18T01:44:31.212Z,8.00
2017-09-18T01:49:59.329Z,8.00
2017-09-18T01:55:28.240Z,8.00
2017-09-18T02:01:03.206Z,8.00
2017-09-18T02:06:31.336Z,8.00
2017-09-18T02:11:59.476Z,8.00
2017-09-18T02:17:48.991Z,8.00
2017-09-18T02:23:17.136Z,8.00
2017-09-18T02:28:45.259Z,8.00
2017-09-18T02:34:13.388Z,8.00
2017-09-18T02:39:41.561Z,8.00
2017-09-18T02:45:09.770Z,8.00
2017-09-18T02:50:38.017Z,8.00
2017-09-18T02:56:06.244Z,8.00
2017-09-18T03:01:35.249Z,8.00
2017-09-18T03:07:03.374Z,8.00
2017-09-18T03:12:31.580Z,8.00
2017-09-18T03:18:00.834Z,8.00
2017-09-18T03:23:28.994Z,8.00
2017-09-18T03:28:57.153Z,8.10
2017-09-18T03:34:25.404Z,8.10
2017-09-18T03:39:53.555Z,8.20
2017-09-18T03:45:21.669Z,8.20
2017-09-18T03:50:54.600Z,8.30
2017-09-18T03:56:22.732Z,8.30
2017-09-18T04:01:50.866Z,8.30
2017-09-18T04:07:19.015Z,8.30
2017-09-18T04:12:49.878Z,8.30
2017-09-18T04:18:18.008Z,8.30
2017-09-18T04:23:46.892Z,8.30
2017-09-18T04:29:15.042Z,8.40
2017-09-18T04:34:43.954Z,8.40
2017-09-18T04:40:12.105Z,8.40
2017-09-18T04:45:40.239Z,8.40
2017-09-18T04:51:08.367Z,8.40
2017-09-18T04:56:36.491Z,8.40
2017-09-18T05:02:04.635Z,8.50
2017-09-18T05:07:32.762Z,8.50
2017-09-18T05:13:00.925Z,8.50
2017-09-18T05:18:29.091Z,8.60
2017-09-18T05:23:57.202Z,8.60
2017-09-18T05:29:25.342Z,8.60
2017-09-18T05:34:53.458Z,8.70
2017-09-18T05:40:21.589Z,8.70
2017-09-18T05:45:49.714Z,8.80
2017-09-18T05:51:17.843Z,8.90
2017-09-18T05:56:45.988Z,8.90
2017-09-18T06:02:14.126Z,9.00
2017-09-18T06:07:43.032Z,9.00
2017-09-18T06:13:11.182Z,9.10
2017-09-18T06:18:39.306Z,9.20
2017-09-18T06:24:08.214Z,9.40
2017-09-18T06:29:36.359Z,9.40
2017-09-18T06:35:04.473Z,9.50
2017-09-18T06:40:32.625Z,9.70
2017-09-18T06:46:00.763Z,9.70
2017-09-18T06:51:28.888Z,9.70
2017-09-18T06:56:57.035Z,9.70
2017-09-18T07:02:25.961Z,9.70
2017-09-18T07:07:54.089Z,9.70
2017-09-18T07:13:22.201Z,9.80
2017-09-18T07:18:50.355Z,10.20
2017-09-18T07:24:18.498Z,10.40
2017-09-18T07:29:46.643Z,10.40
2017-09-18T07:35:14.785Z,10.70
2017-09-18T07:40:43.686Z,10.90
2017-09-18T07:46:11.821Z,11.20
2017-09-18T07:51:40.748Z,11.10
2017-09-18T07:57:08.894Z,11.10
2017-09-18T08:02:37.049Z,11.00
2017-09-18T08:08:05.193Z,11.00
2017-09-18T08:13:33.343Z,11.20
2017-09-18T08:19:01.527Z,11.40
2017-09-18T08:24:29.724Z,11.80
2017-09-18T08:29:57.877Z,11.90
2017-09-18T08:35:26.022Z,11.90
2017-09-18T08:40:54.934Z,12.00
2017-09-18T08:46:23.070Z,12.30
2017-09-18T08:51:51.192Z,12.50
2017-09-18T08:57:19.336Z,12.40
2017-09-18T09:02:47.474Z,12.10
2017-09-18T09:08:15.597Z,12.00
2017-09-18T09:13:43.741Z,12.10
2017-09-18T09:19:12.653Z,12.20
2017-09-18T09:24:40.799Z,12.20
2017-09-18T09:30:08.957Z,12.10
2017-09-18T09:35:37.112Z,12.10
2017-09-18T09:41:05.249Z,12.10
2017-09-18T09:46:33.428Z,12.20
2017-09-18T09:52:01.592Z,12.20
2017-09-18T09:57:29.728Z,12.60
2017-09-18T10:02:58.625Z,12.60
2017-09-18T10:08:26.758Z,12.40
2017-09-18T10:13:55.675Z,12.10
2017-09-18T10:19:23.835Z,12.00
2017-09-18T10:24:51.964Z,12.30
2017-09-18T10:30:20.116Z,12.60
2017-09-18T10:35:48.258Z,12.60
2017-09-18T10:41:17.153Z,12.60
2017-09-18T10:46:45.291Z,12.70
2017-09-18T10:52:14.192Z,13.20
2017-09-18T10:57:42.326Z,13.40
2017-09-18T11:03:11.230Z,13.60
2017-09-18T11:08:39.358Z,14.10
2017-09-18T11:14:08.258Z,14.40
2017-09-18T11:19:36.397Z,14.30
2017-09-18T11:25:05.314Z,14.40
2017-09-18T11:30:33.483Z,14.50
2017-09-18T11:36:01.680Z,14.60
2017-09-18T11:41:29.835Z,14.90
2017-09-18T11:46:57.962Z,15.10
2017-09-18T11:52:26.084Z,15.00
2017-09-18T11:57:54.220Z,15.10
2017-09-18T12:03:23.117Z,15.30
2017-09-18T12:08:51.273Z,14.90
2017-09-18T12:14:19.421Z,14.60
2017-09-18T12:19:47.559Z,14.90
2017-09-18T12:25:16.458Z,15.20
2017-09-18T12:30:44.588Z,15.20
2017-09-18T12:36:13.499Z,15.40
2017-09-18T12:41:41.629Z,15.50
2017-09-18T12:47:10.540Z,15.90
2017-09-18T12:52:38.680Z,16.30
2017-09-18T12:58:06.797Z,16.60
2017-09-18T13:03:34.961Z,16.10
2017-09-18T13:09:03.135Z,15.60
2017-09-18T13:14:32.034Z,16.10
2017-09-18T13:20:01.035Z,16.30
2017-09-18T13:25:29.170Z,16.30
2017-09-18T13:30:57.324Z,16.30
2017-09-18T13:36:25.472Z,16.90
2017-09-18T13:41:53.603Z,17.90
2017-09-18T13:47:21.736Z,18.50
2017-09-18T13:52:49.866Z,17.90
2017-09-18T13:58:18.770Z,17.90
2017-09-18T14:03:46.955Z,18.70
2017-09-18T14:09:15.066Z,17.90
2017-09-18T14:14:43.230Z,17.50
2017-09-18T14:20:11.390Z,17.70
2017-09-18T14:25:39.537Z,19.80
2017-09-18T14:31:07.660Z,19.60
2017-09-18T14:36:35.802Z,20.20
2017-09-18T14:42:04.718Z,18.90
2017-09-18T14:47:32.854Z,17.80
2017-09-18T14:53:01.000Z,16.90
2017-09-18T14:58:29.913Z,19.60
2017-09-18T15:03:58.850Z,20.00
2017-09-18T15:09:27.759Z,19.20
2017-09-18T15:14:55.910Z,17.90
2017-09-18T15:20:24.059Z,17.30
2017-09-18T15:25:52.189Z,17.00
2017-09-18T15:31:20.360Z,16.50
2017-09-18T15:36:49.275Z,16.20
2017-09-18T15:42:17.419Z,16.00
2017-09-18T15:47:45.633Z,15.70
2017-09-18T15:53:13.800Z,15.30
2017-09-18T15:58:42.688Z,15.10
2017-09-18T16:04:11.596Z,15.10
2017-09-18T16:09:39.749Z,15.00
2017-09-18T16:15:07.869Z,14.80
2017-09-18T16:20:38.834Z,14.50
2017-09-18T16:26:06.988Z,14.30
2017-09-18T16:31:35.120Z,14.20
2017-09-18T16:37:03.274Z,14.00
2017-09-18T16:42:31.425Z,13.90
2017-09-18T16:48:00.367Z,13.70
2017-09-18T16:53:28.530Z,13.50
2017-09-18T16:58:56.692Z,13.40
2017-09-18T17:04:24.838Z,13.30
2017-09-18T17:09:52.997Z,13.10
2017-09-18T17:15:21.129Z,13.00
2017-09-18T17:20:49.268Z,12.90
2017-09-18T17:26:17.420Z,12.70
2017-09-18T17:31:45.558Z,12.60
2017-09-18T17:37:14.468Z,12.40
2017-09-18T17:42:42.619Z,12.30
2017-09-18T17:48:10.759Z,12.10
2017-09-18T17:53:39.722Z,12.00
2017-09-18T17:59:07.906Z,11.80
2017-09-18T18:04:36.076Z,11.70
2017-09-18T18:10:04.242Z,11.60
2017-09-18T18:15:32.513Z,11.40
2017-09-18T18:21:00.641Z,11.30
2017-09-18T18:26:28.880Z,11.20
2017-09-18T18:31:57.058Z,11.00
2017-09-18T18:37:27.337Z,10.90
2017-09-18T18:42:55.483Z,10.70
2017-09-18T18:48:23.633Z,10.60
2017-09-18T18:53:51.806Z,10.50
2017-09-18T18:59:19.954Z,10.40
2017-09-18T19:04:48.104Z,10.30
2017-09-18T19:10:16.298Z,10.20
2017-09-18T19:15:44.478Z,10.10
2017-09-18T19:21:12.687Z,10.00
2017-09-18T19:26:40.857Z,9.90
2017-09-18T19:32:09.103Z,9.80
2017-09-18T19:37:37.365Z,9.70
2017-09-18T19:43:05.499Z,9.60
2017-09-18T19:48:33.647Z,9.60
2017-09-18T19:54:01.769Z,9.50
2017-09-18T19:59:30.668Z,9.50
2017-09-18T20:04:59.601Z,9.40
2017-09-18T20:10:29.900Z,9.40
2017-09-18T20:15:58.016Z,9.40
2017-09-18T20:21:26.132Z,9.40
2017-09-18T20:26:54.266Z,9.40
2017-09-18T20:32:22.422Z,9.40
2017-09-18T20:37:50.547Z,9.40
2017-09-18T20:43:18.710Z,9.30
2017-09-18T20:48:46.842Z,9.30
2017-09-18T20:54:14.999Z,9.40
2017-09-18T20:59:43.109Z,9.30
2017-09-18T21:05:11.261Z,9.40
2017-09-18T21:10:39.417Z,9.40
2017-09-18T21:16:07.547Z,9.40
2017-09-18T21:21:35.704Z,9.40
2017-09-18T21:27:03.821Z,9.40
2017-09-18T21:32:32.723Z,9.40
2017-09-18T21:38:00.856Z,9.40
2017-09-18T21:43:29.887Z,9.40
2017-09-18T21:48:58.031Z,9.40
2017-09-18T21:54:26.172Z,9.40
2017-09-18T21:59:54.322Z,9.40
2017-09-18T22:05:23.235Z,9.40
2017-09-18T22:10:51.345Z,9.50
2017-09-18T22:16:20.259Z,9.50
2017-09-18T22:21:48.400Z,9.40
2017-09-18T22:27:16.530Z,9.40
2017-09-18T22:32:45.430Z,9.40
2017-09-18T22:38:13.562Z,9.40
2017-09-18T22:43:42.481Z,9.40
2017-09-18T22:49:10.616Z,9.40
2017-09-18T22:54:38.748Z,9.40
2017-09-18T23:00:06.880Z,9.40
2017-09-18T23:05:36.156Z,9.40
2017-09-18T23:11:04.280Z,9.40
2017-09-18T23:16:32.418Z,9.40
2017-09-18T23:22:01.310Z,9.50
2017-09-18T23:27:29.778Z,9.50
2017-09-18T23:32:57.992Z,9.50
2017-09-18T23:38:26.118Z,9.50
2017-09-18T23:43:54.247Z,9.50
2017-09-18T23:49:22.384Z,9.40
2017-09-18T23:54:50.505Z,9.40
